createdAt,value
2022-12-26T00:01:27.216Z,100694.77
2022-12-26T00:03:57.498Z,100697.39
2022-12-26T00:06:28.093Z,100695.61
2022-12-26T00:08:58.383Z,100693.52
2022-12-26T00:11:28.960Z,100686.26
2022-12-26T00:13:59.373Z,100683.68
2022-12-26T00:16:29.664Z,100691.88
2022-12-26T00:19:00.365Z,100696.35
2022-12-26T00:21:30.961Z,100703.90
2022-12-26T00:24:01.000Z,100702.89
2022-12-26T00:26:31.248Z,100694.94
2022-12-26T00:29:01.285Z,100695.87
2022-12-26T00:31:31.678Z,100686.00
2022-12-26T00:34:01.585Z,100690.25
2022-12-26T00:36:31.827Z,100688.30
2022-12-26T00:39:02.428Z,100688.00
2022-12-26T00:41:32.786Z,100692.53
2022-12-26T00:44:03.519Z,100692.44
2022-12-26T00:46:33.731Z,100697.81
2022-12-26T00:49:03.708Z,100702.91
2022-12-26T00:51:33.981Z,100700.24
2022-12-26T00:54:04.840Z,100700.41
2022-12-26T00:56:35.390Z,100708.17
2022-12-26T00:59:05.388Z,100707.58
2022-12-26T01:01:36.192Z,100707.51
2022-12-26T01:04:06.615Z,100709.05
2022-12-26T01:06:37.427Z,100710.58
2022-12-26T01:09:08.031Z,100719.40
2022-12-26T01:11:38.671Z,100720.89
2022-12-26T01:14:09.178Z,100716.29
2022-12-26T01:16:39.576Z,100717.98
2022-12-26T01:19:10.311Z,100724.17
2022-12-26T01:21:40.647Z,100720.82
2022-12-26T01:24:11.112Z,100718.18
2022-12-26T01:26:41.793Z,100717.74
2022-12-26T01:29:12.550Z,100715.54
2022-12-26T01:31:43.083Z,100719.46
2022-12-26T01:34:13.270Z,100714.95
2022-12-26T01:36:43.882Z,100712.69
2022-12-26T01:39:14.412Z,100722.17
2022-12-26T01:41:45.516Z,100725.88
2022-12-26T01:44:16.138Z,100729.29
2022-12-26T01:46:46.241Z,100730.33
2022-12-26T01:49:16.462Z,100732.85
2022-12-26T01:51:47.405Z,100733.55
2022-12-26T01:54:39.423Z,100737.63
2022-12-26T01:56:48.246Z,100742.54
2022-12-26T01:59:18.255Z,100745.36
2022-12-26T02:01:48.675Z,100741.80
2022-12-26T02:04:18.806Z,100741.55
2022-12-26T02:06:49.671Z,100739.35
2022-12-26T02:09:19.899Z,100737.71
2022-12-26T02:11:49.956Z,100737.62
2022-12-26T02:14:20.723Z,100736.59
2022-12-26T02:16:51.403Z,100739.08
2022-12-26T02:19:22.105Z,100736.13
2022-12-26T02:21:52.425Z,100729.44
2022-12-26T02:24:23.107Z,100730.24
2022-12-26T02:26:53.881Z,100739.35
2022-12-26T02:29:24.690Z,100738.62
2022-12-26T02:31:55.369Z,100742.82
2022-12-26T02:34:25.476Z,100742.50
2022-12-26T02:36:55.940Z,100741.06
2022-12-26T02:39:44.268Z,100740.82
2022-12-26T02:41:56.817Z,100738.00
2022-12-26T02:44:27.112Z,100733.54
2022-12-26T02:46:57.878Z,100733.85
2022-12-26T02:49:28.499Z,100724.70
2022-12-26T02:51:58.756Z,100722.86
2022-12-26T02:54:29.403Z,100722.27
2022-12-26T02:57:00.163Z,100725.96
2022-12-26T02:59:54.047Z,100724.12
2022-12-26T03:02:01.569Z,100726.40
2022-12-26T03:04:31.840Z,100733.74
2022-12-26T03:07:02.505Z,100733.47
2022-12-26T03:09:32.997Z,100738.71
2022-12-26T03:12:03.995Z,100735.84
2022-12-26T03:14:34.695Z,100738.15
2022-12-26T03:17:05.051Z,100735.92
2022-12-26T03:19:35.211Z,100738.88
2022-12-26T03:22:05.276Z,100743.39
2022-12-26T03:24:35.771Z,100747.11
2022-12-26T03:27:06.311Z,100750.73
2022-12-26T03:29:36.337Z,100752.62
2022-12-26T03:32:07.205Z,100751.07
2022-12-26T03:34:37.726Z,100749.04
2022-12-26T03:37:08.545Z,100748.93
2022-12-26T03:39:39.322Z,100749.59
2022-12-26T03:42:09.927Z,100748.66
2022-12-26T03:44:40.696Z,100749.60
2022-12-26T03:47:11.080Z,100745.78
2022-12-26T03:49:41.310Z,100743.11
2022-12-26T03:52:12.108Z,100744.79
2022-12-26T03:54:42.746Z,100743.41
2022-12-26T03:57:13.256Z,100746.81
2022-12-26T03:59:43.335Z,100741.83
2022-12-26T04:02:13.800Z,100741.24
2022-12-26T04:04:43.824Z,100743.36
2022-12-26T04:07:13.874Z,100748.06
2022-12-26T04:09:44.089Z,100750.79
2022-12-26T04:12:14.150Z,100751.45
2022-12-26T04:14:44.922Z,100755.43
2022-12-26T04:17:15.262Z,100749.57
2022-12-26T04:19:46.085Z,100750.34
2022-12-26T04:22:16.128Z,100751.16
2022-12-26T04:24:46.358Z,100743.40
2022-12-26T04:27:17.151Z,100745.10
2022-12-26T04:29:47.431Z,100747.38
2022-12-26T04:32:17.550Z,100750.06
2022-12-26T04:34:48.061Z,100744.56
2022-12-26T04:37:18.861Z,100743.47
2022-12-26T04:39:49.391Z,100739.52
2022-12-26T04:42:19.690Z,100743.05
2022-12-26T04:44:49.688Z,100741.41
2022-12-26T04:47:20.613Z,100739.88
2022-12-26T04:49:51.054Z,100740.91
2022-12-26T04:52:21.326Z,100742.08
2022-12-26T04:54:52.086Z,100747.28
2022-12-26T04:57:22.535Z,100751.17
2022-12-26T04:59:53.176Z,100758.94
2022-12-26T05:02:23.953Z,100761.54
2022-12-26T05:04:54.006Z,100767.68
2022-12-26T05:07:23.967Z,100763.73
2022-12-26T05:09:54.344Z,100767.09
2022-12-26T05:12:24.709Z,100771.01
2022-12-26T05:14:54.659Z,100771.29
2022-12-26T05:17:25.197Z,100776.21
2022-12-26T05:19:55.979Z,100779.51
2022-12-26T05:22:26.858Z,100781.34
2022-12-26T05:24:57.651Z,100783.98
2022-12-26T05:27:27.772Z,100779.05
2022-12-26T05:29:58.120Z,100775.84
2022-12-26T05:32:28.821Z,100777.49
2022-12-26T05:34:59.040Z,100774.23
2022-12-26T05:37:29.717Z,100761.64
2022-12-26T05:40:00.281Z,100765.24
2022-12-26T05:42:30.816Z,100770.33
2022-12-26T05:45:01.679Z,100769.71
2022-12-26T05:47:32.543Z,100763.98
2022-12-26T05:50:02.757Z,100760.87
2022-12-26T05:52:32.817Z,100758.23
2022-12-26T05:55:03.213Z,100760.65
2022-12-26T05:57:33.702Z,100760.89
2022-12-26T06:00:04.298Z,100767.74
2022-12-26T06:02:35.081Z,100769.87
2022-12-26T06:05:05.610Z,100774.63
2022-12-26T06:07:35.956Z,100778.00
2022-12-26T06:10:06.041Z,100770.59
2022-12-26T06:12:36.233Z,100774.56
2022-12-26T06:15:06.534Z,100775.50
2022-12-26T06:17:37.457Z,100777.68
2022-12-26T06:20:08.317Z,100776.89
2022-12-26T06:22:38.725Z,100768.21
2022-12-26T06:25:09.147Z,100767.98
2022-12-26T06:27:39.222Z,100776.12
2022-12-26T06:30:09.500Z,100771.61
2022-12-26T06:32:39.652Z,100765.41
2022-12-26T06:35:10.025Z,100761.76
2022-12-26T06:37:40.852Z,100760.37
2022-12-26T06:40:10.723Z,100766.01
2022-12-26T06:42:41.110Z,100764.34
2022-12-26T06:45:11.720Z,100761.14
2022-12-26T06:47:42.119Z,100755.15
2022-12-26T06:50:12.244Z,100753.06
2022-12-26T06:52:42.796Z,100748.86
2022-12-26T06:55:13.041Z,100749.62
2022-12-26T06:57:43.066Z,100743.27
2022-12-26T07:00:13.135Z,100741.15
2022-12-26T07:02:43.753Z,100742.85
2022-12-26T07:05:14.121Z,100735.99
2022-12-26T07:07:44.637Z,100728.15
2022-12-26T07:10:15.217Z,100735.01
2022-12-26T07:12:45.703Z,100742.37
2022-12-26T07:15:16.025Z,100744.35
2022-12-26T07:17:46.588Z,100749.99
2022-12-26T07:20:16.915Z,100756.24
2022-12-26T07:22:47.723Z,100756.30
2022-12-26T07:25:18.439Z,100753.22
2022-12-26T07:27:48.457Z,100761.04
2022-12-26T07:30:18.603Z,100767.91
2022-12-26T07:32:49.129Z,100768.64
2022-12-26T07:35:19.217Z,100767.94
2022-12-26T07:37:49.932Z,100771.09
2022-12-26T07:40:20.287Z,100773.24
2022-12-26T07:42:50.923Z,100772.04
2022-12-26T07:45:21.642Z,100769.30
2022-12-26T07:47:51.869Z,100768.56
2022-12-26T07:50:22.372Z,100766.97
2022-12-26T07:52:53.065Z,100774.87
2022-12-26T07:55:23.325Z,100773.60
2022-12-26T07:57:53.448Z,100771.73
2022-12-26T08:00:23.453Z,100781.03
2022-12-26T08:02:54.248Z,100784.67
2022-12-26T08:05:24.158Z,100781.47
2022-12-26T08:07:55.048Z,100781.30
2022-12-26T08:10:25.128Z,100786.35
2022-12-26T08:12:55.162Z,100781.10
2022-12-26T08:15:25.230Z,100779.79
2022-12-26T08:17:55.876Z,100765.54
2022-12-26T08:20:26.230Z,100765.95
2022-12-26T08:25:26.496Z,100768.50
2022-12-26T08:27:57.333Z,100768.80
2022-12-26T08:30:28.269Z,100776.98
2022-12-26T08:32:58.827Z,100783.66
2022-12-26T08:38:02.771Z,100786.43
2022-12-26T08:40:42.455Z,100784.16
2022-12-26T08:43:21.368Z,100774.20
2022-12-26T08:48:02.855Z,100758.06
2022-12-26T08:50:37.856Z,100762.52
2022-12-26T08:53:05.260Z,100750.71
2022-12-26T08:58:05.253Z,100746.13
2022-12-26T09:00:36.364Z,100759.55
2022-12-26T09:08:13.403Z,100772.65
2022-12-26T09:20:40.171Z,100771.28
2022-12-26T09:28:15.060Z,100776.00
2022-12-26T09:30:40.599Z,100767.11
2022-12-26T09:33:10.913Z,100773.18
2022-12-26T09:35:41.544Z,100777.83
2022-12-26T09:38:12.136Z,100776.53
2022-12-26T09:40:42.657Z,100766.86
2022-12-26T09:43:12.739Z,100765.64
2022-12-26T09:50:44.269Z,100780.98
2022-12-26T09:53:19.636Z,100784.07
2022-12-26T09:55:45.102Z,100789.25
2022-12-26T09:58:15.668Z,100787.12
2022-12-26T10:00:46.253Z,100790.37
2022-12-26T10:03:21.978Z,100782.89
2022-12-26T10:05:47.433Z,100791.56
2022-12-26T10:08:17.669Z,100790.12
2022-12-26T10:10:48.397Z,100788.95
2022-12-26T10:13:18.568Z,100784.77
2022-12-26T10:15:49.244Z,100788.61
2022-12-26T10:18:19.858Z,100799.41
2022-12-26T10:20:50.315Z,100790.57
2022-12-26T10:23:20.892Z,100799.00
2022-12-26T10:25:51.468Z,100799.12
2022-12-26T10:28:22.053Z,100807.90
2022-12-26T10:30:53.210Z,100809.17
2022-12-26T10:33:23.218Z,100804.65
2022-12-26T10:35:53.779Z,100817.85
2022-12-26T10:38:27.586Z,100817.38
2022-12-26T10:40:54.926Z,100814.47
2022-12-26T10:43:25.558Z,100825.94
2022-12-26T10:45:56.086Z,100830.24
2022-12-26T10:48:26.719Z,100828.75
2022-12-26T10:50:57.370Z,100837.62
2022-12-26T10:53:27.830Z,100836.13
2022-12-26T10:55:58.414Z,100835.74
2022-12-26T10:58:29.009Z,100842.59
2022-12-26T11:00:59.653Z,100839.77
2022-12-26T11:03:30.174Z,100834.37
2022-12-26T11:06:08.901Z,100847.52
2022-12-26T11:08:31.323Z,100843.98
2022-12-26T11:11:01.885Z,100847.35
2022-12-26T11:13:32.494Z,100873.35
2022-12-26T11:16:03.076Z,100885.34
2022-12-26T11:18:33.628Z,100908.89
2022-12-26T11:21:09.373Z,100915.99
2022-12-26T11:23:34.966Z,100923.03
2022-12-26T11:26:05.504Z,100926.42
2022-12-26T11:28:36.060Z,100931.84
2022-12-26T11:31:06.766Z,100941.68
2022-12-26T11:33:37.334Z,100956.18
2022-12-26T11:36:08.034Z,100958.13
2022-12-26T11:38:44.625Z,100951.76
2022-12-26T11:41:09.233Z,100957.34
2022-12-26T11:43:39.880Z,100957.94
2022-12-26T11:46:10.531Z,100962.05
2022-12-26T11:48:41.183Z,100972.87
2022-12-26T11:51:11.921Z,100975.73
2022-12-26T11:53:42.465Z,100977.10
2022-12-26T11:56:13.082Z,100981.64
2022-12-26T11:58:43.732Z,100988.71
2022-12-26T12:01:14.445Z,100998.51
2022-12-26T12:03:49.206Z,100997.83
2022-12-26T12:06:15.719Z,100988.86
2022-12-26T12:08:46.306Z,101000.36
2022-12-26T12:11:16.967Z,101007.69
2022-12-26T12:13:47.681Z,101010.34
2022-12-26T12:16:18.301Z,101012.34
2022-12-26T12:18:48.940Z,101021.79
2022-12-26T12:21:19.578Z,101025.04
2022-12-26T12:23:50.216Z,101027.00
2022-12-26T12:26:20.884Z,101028.06
2022-12-26T12:28:51.538Z,101030.89
2022-12-26T12:31:22.218Z,101023.07
2022-12-26T12:33:52.855Z,101032.56
2022-12-26T12:36:23.550Z,101038.40
2022-12-26T12:38:56.778Z,101037.36
2022-12-26T12:41:24.863Z,101041.45
2022-12-26T12:43:55.629Z,101046.20
2022-12-26T12:46:26.193Z,101053.12
2022-12-26T12:48:56.908Z,101060.13
2022-12-26T12:51:27.543Z,101067.50
2022-12-26T12:53:58.308Z,101071.99
2022-12-26T12:56:28.890Z,101075.43
2022-12-26T12:58:59.767Z,101070.30
2022-12-26T13:01:30.358Z,101067.39
2022-12-26T13:04:00.916Z,101065.33
2022-12-26T13:06:31.612Z,101066.05
2022-12-26T13:09:02.287Z,101072.81
2022-12-26T13:11:32.952Z,101074.09
2022-12-26T13:14:03.628Z,101075.27
2022-12-26T13:16:34.334Z,101078.35
2022-12-26T13:19:05.026Z,101085.87
2022-12-26T13:21:35.689Z,101084.17
2022-12-26T13:24:06.349Z,101091.12
2022-12-26T13:26:37.030Z,101095.38
2022-12-26T13:29:07.756Z,101104.95
2022-12-26T13:31:38.449Z,101109.56
2022-12-26T13:34:09.122Z,101106.62
2022-12-26T13:36:39.790Z,101115.34
2022-12-26T13:39:10.489Z,101121.46
2022-12-26T13:41:41.172Z,101121.61
2022-12-26T13:44:11.851Z,101119.54
2022-12-26T13:46:42.550Z,101124.14
2022-12-26T13:49:13.326Z,101135.42
2022-12-26T13:51:43.959Z,101137.60
2022-12-26T13:54:14.687Z,101126.29
2022-12-26T13:56:46.192Z,101123.96
2022-12-26T13:59:16.097Z,101127.04
2022-12-26T14:01:47.003Z,101134.93
2022-12-26T14:04:17.547Z,101139.99
2022-12-26T14:06:48.179Z,101149.84
2022-12-26T14:09:18.832Z,101154.91
2022-12-26T14:11:49.520Z,101167.04
2022-12-26T14:14:20.203Z,101161.85
2022-12-26T14:16:50.698Z,101164.07
2022-12-26T14:19:21.415Z,101168.55
2022-12-26T14:21:52.179Z,101173.34
2022-12-26T14:24:22.813Z,101177.62
2022-12-26T14:26:53.522Z,101174.88
2022-12-26T14:29:24.253Z,101185.40
2022-12-26T14:31:54.914Z,101185.20
2022-12-26T14:34:25.635Z,101182.11
2022-12-26T14:36:56.359Z,101189.35
2022-12-26T14:39:27.043Z,101192.85
2022-12-26T14:41:57.819Z,101189.28
2022-12-26T14:44:28.469Z,101190.15
2022-12-26T14:46:58.528Z,101192.90
2022-12-26T14:49:35.198Z,101197.60
2022-12-26T14:51:59.671Z,101193.32
2022-12-26T14:54:30.358Z,101197.99
2022-12-26T14:57:00.719Z,101204.29
2022-12-26T14:59:31.480Z,101206.07
2022-12-26T15:02:02.415Z,101212.32
2022-12-26T15:04:32.734Z,101213.48
2022-12-26T15:07:03.064Z,101223.34
2022-12-26T15:09:33.578Z,101228.72
2022-12-26T15:12:04.242Z,101231.11
2022-12-26T15:14:34.988Z,101239.25
2022-12-26T15:17:05.186Z,101244.18
2022-12-26T15:19:35.557Z,101251.71
2022-12-26T15:22:05.907Z,101254.52
2022-12-26T15:25:17.022Z,101254.87
2022-12-26T15:27:07.322Z,101256.70
2022-12-26T15:29:38.084Z,101261.24
2022-12-26T15:32:08.721Z,101263.22
2022-12-26T15:34:39.451Z,101269.10
2022-12-26T15:37:10.134Z,101272.09
2022-12-26T15:39:40.921Z,101270.39
2022-12-26T15:42:11.533Z,101274.08
2022-12-26T15:44:42.243Z,101271.55
2022-12-26T15:47:12.971Z,101275.45
2022-12-26T15:49:43.450Z,101272.95
2022-12-26T15:52:14.138Z,101276.47
2022-12-26T15:54:44.822Z,101279.09
2022-12-26T15:57:15.545Z,101278.38
2022-12-26T15:59:46.277Z,101283.94
2022-12-26T16:02:16.901Z,101289.14
2022-12-26T16:04:47.412Z,101296.57
2022-12-26T16:07:18.139Z,101297.72
2022-12-26T16:09:48.822Z,101302.25
2022-12-26T16:12:19.669Z,101299.79
2022-12-26T16:14:50.334Z,101307.17
2022-12-26T16:17:20.940Z,101311.57
2022-12-26T16:19:51.641Z,101317.68
2022-12-26T16:22:22.347Z,101320.29
2022-12-26T16:24:53.042Z,101318.79
2022-12-26T16:27:23.839Z,101319.32
2022-12-26T16:29:54.104Z,101326.31
2022-12-26T16:32:24.829Z,101324.23
2022-12-26T16:34:55.515Z,101321.79
2022-12-26T16:37:26.249Z,101325.83
2022-12-26T16:39:56.939Z,101325.07
2022-12-26T16:42:27.675Z,101336.00
2022-12-26T16:44:58.370Z,101338.47
2022-12-26T16:47:29.107Z,101337.95
2022-12-26T16:49:59.791Z,101343.29
2022-12-26T16:52:30.528Z,101347.81
2022-12-26T16:55:01.193Z,101348.85
2022-12-26T16:57:31.912Z,101350.37
2022-12-26T17:00:02.779Z,101349.56
2022-12-26T17:02:33.416Z,101347.38
2022-12-26T17:05:04.019Z,101349.51
2022-12-26T17:07:34.739Z,101349.73
2022-12-26T17:10:09.416Z,101352.64
2022-12-26T17:12:35.925Z,101354.80
2022-12-26T17:15:06.554Z,101362.12
2022-12-26T17:17:37.266Z,101369.52
2022-12-26T17:20:07.984Z,101372.69
2022-12-26T17:22:38.690Z,101377.69
2022-12-26T17:25:09.379Z,101382.92
2022-12-26T17:27:40.126Z,101387.02
2022-12-26T17:30:10.859Z,101385.11
2022-12-26T17:32:41.587Z,101387.77
2022-12-26T17:35:12.350Z,101388.84
2022-12-26T17:37:42.948Z,101395.64
2022-12-26T17:40:13.515Z,101397.77
2022-12-26T17:42:43.831Z,101400.58
2022-12-26T17:45:14.523Z,101399.90
2022-12-26T17:47:45.243Z,101395.59
2022-12-26T17:50:15.966Z,101402.25
2022-12-26T17:52:46.683Z,101407.68
2022-12-26T17:55:17.442Z,101411.37
2022-12-26T17:57:48.130Z,101413.40
2022-12-26T18:00:18.862Z,101413.19
2022-12-26T18:02:49.827Z,101418.33
2022-12-26T18:05:20.458Z,101422.29
2022-12-26T18:07:50.831Z,101422.97
2022-12-26T18:10:21.723Z,101424.89
2022-12-26T18:12:52.316Z,101432.16
2022-12-26T18:15:23.062Z,101437.62
2022-12-26T18:17:53.906Z,101441.21
2022-12-26T18:20:24.662Z,101443.37
2022-12-26T18:22:55.311Z,101442.77
2022-12-26T18:25:26.053Z,101443.83
2022-12-26T18:27:56.790Z,101450.99
2022-12-26T18:30:27.516Z,101455.82
2022-12-26T18:32:58.274Z,101453.96
2022-12-26T18:35:29.032Z,101450.23
2022-12-26T18:37:59.900Z,101452.01
2022-12-26T18:40:30.647Z,101453.99
2022-12-26T18:43:01.339Z,101460.28
2022-12-26T18:45:31.933Z,101461.34
2022-12-26T18:48:02.675Z,101467.31
2022-12-26T18:50:33.298Z,101470.46
2022-12-26T18:53:04.114Z,101475.69
2022-12-26T18:55:34.823Z,101468.63
2022-12-26T18:58:05.588Z,101468.46
2022-12-26T19:00:36.524Z,101473.48
2022-12-26T19:03:07.087Z,101475.32
2022-12-26T19:05:37.837Z,101474.87
2022-12-26T19:08:08.637Z,101478.83
2022-12-26T19:10:39.377Z,101482.95
2022-12-26T19:13:10.144Z,101480.69
2022-12-26T19:15:40.898Z,101483.93
2022-12-26T19:18:11.676Z,101486.04
2022-12-26T19:20:44.420Z,101494.97
2022-12-26T19:23:13.313Z,101504.36
2022-12-26T19:25:43.997Z,101509.98
2022-12-26T19:28:14.780Z,101512.38
2022-12-26T19:30:45.561Z,101512.96
2022-12-26T19:33:16.379Z,101512.90
2022-12-26T19:35:46.777Z,101516.57
2022-12-26T19:38:17.743Z,101519.89
2022-12-26T19:40:48.341Z,101523.23
2022-12-26T19:43:19.167Z,101526.15
2022-12-26T19:45:49.954Z,101528.53
2022-12-26T19:48:20.721Z,101529.46
2022-12-26T19:50:51.522Z,101533.36
2022-12-26T19:53:22.315Z,101537.92
2022-12-26T19:55:53.102Z,101542.23
2022-12-26T19:58:23.902Z,101543.85
2022-12-26T20:00:54.445Z,101548.11
2022-12-26T20:03:25.221Z,101549.36
2022-12-26T20:05:56.011Z,101549.96
2022-12-26T20:08:26.814Z,101562.80
2022-12-26T20:11:00.838Z,101565.21
2022-12-26T20:13:28.487Z,101568.48
2022-12-26T20:15:59.234Z,101567.76
2022-12-26T20:18:30.062Z,101573.38
2022-12-26T20:21:00.798Z,101575.65
2022-12-26T20:23:31.632Z,101573.64
2022-12-26T20:26:02.432Z,101570.35
2022-12-26T20:28:33.225Z,101577.26
2022-12-26T20:31:05.958Z,101582.29
2022-12-26T20:33:34.816Z,101576.12
2022-12-26T20:36:05.601Z,101579.70
2022-12-26T20:38:36.477Z,101578.08
2022-12-26T20:41:07.209Z,101574.89
2022-12-26T20:43:38.020Z,101581.69
2022-12-26T20:46:08.861Z,101581.67
2022-12-26T20:48:39.611Z,101577.81
2022-12-26T20:51:10.407Z,101587.14
2022-12-26T20:53:41.207Z,101591.26
2022-12-26T20:56:12.012Z,101592.87
2022-12-26T20:58:42.786Z,101588.45
2022-12-26T21:01:13.753Z,101592.22
2022-12-26T21:03:44.382Z,101590.51
2022-12-26T21:06:15.207Z,101598.68
2022-12-26T21:08:46.003Z,101592.55
2022-12-26T21:11:16.802Z,101593.10
2022-12-26T21:13:47.583Z,101590.11
2022-12-26T21:16:18.486Z,101593.46
2022-12-26T21:18:49.204Z,101595.07
2022-12-26T21:21:20.019Z,101597.12
2022-12-26T21:23:50.811Z,101598.76
2022-12-26T21:26:21.625Z,101596.69
2022-12-26T21:28:52.438Z,101597.89
2022-12-26T21:31:23.305Z,101599.94
2022-12-26T21:33:54.057Z,101599.71
2022-12-26T21:36:24.619Z,101601.37
2022-12-26T21:38:55.410Z,101603.45
2022-12-26T21:41:26.230Z,101598.82
2022-12-26T21:43:57.045Z,101598.65
2022-12-26T21:46:27.886Z,101602.36
2022-12-26T21:48:58.743Z,101600.07
2022-12-26T21:51:29.536Z,101600.69
2022-12-26T21:53:59.990Z,101598.78
2022-12-26T21:56:30.818Z,101606.85
2022-12-26T21:59:01.716Z,101607.63
2022-12-26T22:01:32.697Z,101614.29
2022-12-26T22:04:03.244Z,101619.55
2022-12-26T22:06:34.084Z,101617.41
2022-12-26T22:09:04.882Z,101617.97
2022-12-26T22:11:35.722Z,101621.99
2022-12-26T22:14:06.536Z,101627.02
2022-12-26T22:16:37.359Z,101631.88
2022-12-26T22:19:07.890Z,101638.01
2022-12-26T22:21:38.732Z,101632.68
2022-12-26T22:24:09.543Z,101643.89
2022-12-26T22:26:40.365Z,101642.44
2022-12-26T22:29:11.177Z,101653.49
2022-12-26T22:31:42.007Z,101654.70
2022-12-26T22:34:12.840Z,101656.51
2022-12-26T22:36:43.660Z,101660.74
2022-12-26T22:39:14.554Z,101662.11
2022-12-26T22:41:45.305Z,101663.70
2022-12-26T22:44:16.109Z,101664.50
2022-12-26T22:46:46.996Z,101662.63
2022-12-26T22:49:17.753Z,101657.69
2022-12-26T22:51:48.589Z,101658.53
2022-12-26T22:54:19.386Z,101660.07
2022-12-26T22:56:49.929Z,101665.80
2022-12-26T22:59:49.103Z,101668.74
2022-12-26T23:01:51.713Z,101660.39
2022-12-26T23:04:22.378Z,101660.56
2022-12-26T23:06:53.227Z,101654.96
2022-12-26T23:09:24.024Z,101657.38
2022-12-26T23:11:54.888Z,101656.87
2022-12-26T23:14:25.662Z,101665.23
2022-12-26T23:16:56.497Z,101667.48
2022-12-26T23:19:27.298Z,101661.26
2022-12-26T23:21:57.790Z,101663.56
2022-12-26T23:24:28.597Z,101667.58
2022-12-26T23:26:59.430Z,101664.64
2022-12-26T23:29:30.201Z,101657.33
2022-12-26T23:32:01.032Z,101658.03
2022-12-26T23:34:31.831Z,101660.69
2022-12-26T23:37:02.386Z,101655.98
2022-12-26T23:39:33.191Z,101668.52
2022-12-26T23:42:03.418Z,101665.39
2022-12-26T23:44:34.201Z,101660.15
2022-12-26T23:47:05.017Z,101652.45
2022-12-26T23:49:35.789Z,101650.57
2022-12-26T23:52:06.621Z,101654.76
2022-12-26T23:54:37.411Z,101657.68
2022-12-26T23:57:08.236Z,101654.68
2022-12-26T23:59:39.049Z,101659.61
